Aérodrome :
LOGIN :

S'inscrire | Disclaimer

   EN    FR    IT 

 










Légende :    VFR   VFR Marginal   IFR   IFR Intensif   IFR Très Intensif
Visi : 
Plafond : 
>= 8 km
>= 3000ft
5 à 8 km
1000 à 3000 ft
1500m à 5 km
500 à 1000 ft
800 à 1500m
200 à 500 ft
< 800m
< 200 ft
Symboles :   Orages  Brouillard  Fortes neiges  Fortes précipitations  Vent > 20 kt
SIGMETs :   Divers  Orages  Givrage  Turbulence  Onde Orograph.  Cendres Volcan.






- Altitude de l'aérodrome : 1708 ft
- Code IATA : SJJ


LQSA - Sarajevo

DERNIER METAR :
  • 141300Z 16005KT 120V210 9999 SCT016 07/04 Q1002 NOSIG

METARs EXPIRÉS :
  • 141230Z 12005KT 090V150 9999 FEW015 SCT040 08/04 Q1002 NOSIG
  • 141200Z VRB01KT 9999 SCT020 BKN040 06/03 Q1002 NOSIG
  • 141130Z VRB02KT 9999 FEW015 SCT030 BKN040 06/03 Q1001 NOSIG
  • 141100Z 01003KT 330V040 9999 OVC015 06/04 Q1001 NOSIG
  • 141030Z 34004KT 300V020 9999 SCT015 BKN020 OVC030 05/03 Q1001 NOSIG

TAF TAF LQSA
Valide du 14 à 12h jusqu'au 15 à 12h UTC


141100Z 1412/1512 VRB02KT 9999 FEW018 SCT045 TX08/1512Z TNM03/1505Z
BECMG 1419/1421 2000 BR BKN008
PROB40 1502/1508 0300 FZFG OVC001
BECMG 1509/1511 6000 NSW SCT012



MET'MAP, la Météo Aéronautique d'un coup d'oeil ! - Copyright ORBIFLY Décembre 2007 - Disclaimer

ORBIFLY MET'MAP TEAM :

Programmation & Développement : Alexandra Zaïnal
Sur une idée originale de : Baudouin d'Aumeries
Assistance à la programmation : Marc-Olivier Méhu
Soutien technique & logistique : Manuel Goepfert

Contact : metmap@orbifly.com




SOURCES & CREDITS :

   NOAA